createdAt,value
2019-01-24T13:35:56.668Z,1.20
2019-01-24T19:52:51.000Z,0.50
2019-01-24T19:57:56.305Z,0.50
2019-01-24T20:03:03.379Z,0.40
2019-01-24T20:08:09.829Z,0.40
2019-01-24T20:13:14.808Z,0.40
2019-01-24T20:18:21.628Z,0.40
2019-01-24T20:23:26.878Z,0.40
2019-01-24T20:28:31.628Z,0.40
2019-01-24T20:33:36.338Z,0.30
2019-01-24T20:38:41.272Z,0.30
2019-01-24T20:43:47.575Z,0.30
2019-01-24T20:48:52.227Z,0.30
2019-01-24T20:53:56.900Z,0.30
2019-01-24T20:59:01.545Z,0.30
2019-01-24T21:04:07.644Z,0.30
2019-01-24T21:09:14.865Z,0.30
2019-01-24T21:14:19.791Z,0.30
2019-01-24T21:19:24.464Z,0.40
2019-01-24T21:24:30.688Z,0.40
2019-01-24T21:29:39.290Z,0.40
2019-01-24T21:34:44.864Z,0.40
2019-01-24T21:39:49.552Z,0.40
2019-01-24T21:44:54.548Z,0.40
2019-01-24T21:49:59.448Z,0.40
2019-01-24T21:55:05.559Z,0.40
2019-01-24T22:00:14.200Z,0.30
2019-01-24T22:05:21.039Z,0.30
2019-01-24T22:10:27.039Z,0.30
2019-01-24T22:15:31.862Z,0.30
2019-01-24T22:20:36.669Z,0.20
2019-01-24T22:25:41.432Z,0.20
2019-01-24T22:30:50.351Z,0.20
2019-01-24T22:35:56.843Z,0.10
2019-01-24T22:41:01.502Z,0.20
2019-01-24T22:46:06.235Z,0.10
2019-01-24T22:51:11.235Z,0.10
2019-01-24T22:56:19.404Z,0.10
2019-01-24T23:01:52.671Z,0.00
2019-01-24T23:06:58.999Z,0.00
2019-01-24T23:12:04.220Z,0.00
2019-01-24T23:17:09.404Z,-0.10
2019-01-24T23:22:20.044Z,-0.10
2019-01-24T23:27:24.677Z,-0.10
2019-01-24T23:32:29.547Z,-0.20
2019-01-24T23:37:35.440Z,-0.20
2019-01-24T23:42:40.491Z,-0.30
2019-01-24T23:47:45.148Z,-0.30
2019-01-24T23:52:50.022Z,-0.40
2019-01-24T23:57:56.028Z,-0.40
